createdAt,value
2023-12-26T00:00:01.915Z,239.8
2023-12-26T00:01:01.958Z,216.1
2023-12-26T00:02:01.913Z,215.5
2023-12-26T00:03:02.270Z,207.6
2023-12-26T00:04:01.961Z,244.8
2023-12-26T00:05:02.066Z,209.6
2023-12-26T00:06:01.982Z,203.9
2023-12-26T00:07:01.928Z,211.7
2023-12-26T00:08:01.893Z,212.2
2023-12-26T00:09:01.945Z,220.6
2023-12-26T00:10:01.928Z,208.3
2023-12-26T00:11:01.922Z,196.1
2023-12-26T00:12:02.022Z,196.1
2023-12-26T00:13:01.906Z,206.5
2023-12-26T00:14:01.905Z,196.9
2023-12-26T00:15:01.957Z,192.1
2023-12-26T00:16:01.922Z,203.2
2023-12-26T00:17:01.951Z,219.6
2023-12-26T00:18:02.019Z,204.9
2023-12-26T00:19:02.093Z,175.7
2023-12-26T00:20:01.925Z,244.8
2023-12-26T00:21:01.991Z,241.6
2023-12-26T00:22:01.893Z,216.1
2023-12-26T00:23:01.941Z,222.4
2023-12-26T00:24:01.956Z,235.3
2023-12-26T00:25:01.908Z,250.7
2023-12-26T00:26:01.919Z,241.6
2023-12-26T00:27:01.966Z,261.1
2023-12-26T00:28:01.918Z,257.8
2023-12-26T00:29:01.906Z,246.4
2023-12-26T00:30:01.953Z,242.5
2023-12-26T00:31:01.944Z,244.1
2023-12-26T00:32:01.892Z,236.5
2023-12-26T00:33:02.120Z,234.4
2023-12-26T00:34:02.130Z,244.8
2023-12-26T00:35:01.856Z,224.9
2023-12-26T00:36:01.993Z,239.6
2023-12-26T00:37:01.938Z,256.5
2023-12-26T00:38:01.887Z,213.2
2023-12-26T00:39:01.958Z,210.3
2023-12-26T00:40:05.100Z,204.9
2023-12-26T00:41:01.933Z,263.7
2023-12-26T00:42:01.992Z,268.8
2023-12-26T00:43:01.931Z,257.5
2023-12-26T00:44:01.937Z,276.8
2023-12-26T00:45:01.902Z,27
2023-12-26T00:46:01.900Z,257.5
2023-12-26T00:47:01.901Z,243.2
2023-12-26T00:48:02.100Z,225.7
2023-12-26T00:49:02.038Z,160.2
2023-12-26T00:50:01.933Z,221
2023-12-26T00:51:01.952Z,209
2023-12-26T00:52:01.931Z,262.8
2023-12-26T00:53:01.917Z,232.4
2023-12-26T00:54:01.883Z,239.4
2023-12-26T00:55:01.932Z,247.4
2023-12-26T00:56:01.949Z,245.2
2023-12-26T00:57:02.042Z,246
2023-12-26T00:58:01.932Z,272.2
2023-12-26T00:59:01.916Z,264.8
2023-12-26T01:00:01.989Z,254.8
2023-12-26T01:01:01.965Z,250.9
2023-12-26T01:02:01.932Z,268.5
2023-12-26T01:03:01.964Z,247.9
2023-12-26T01:04:01.936Z,283.7
2023-12-26T01:05:01.952Z,261.4
2023-12-26T01:06:01.965Z,298.1
2023-12-26T01:07:01.937Z,242.3
2023-12-26T01:08:01.925Z,268.5
2023-12-26T01:09:02.101Z,285.3
2023-12-26T01:10:01.956Z,344.6
2023-12-26T01:11:01.925Z,319.4
2023-12-26T01:12:01.977Z,327.5
2023-12-26T01:13:01.911Z,16.6
2023-12-26T01:14:01.930Z,336.2
2023-12-26T01:15:02.048Z,300.9
2023-12-26T01:16:01.928Z,351.7
2023-12-26T01:17:01.932Z,355.7
2023-12-26T01:18:02.128Z,282.9
2023-12-26T01:19:02.116Z,349.2
2023-12-26T01:20:01.929Z,23.9
2023-12-26T01:21:01.956Z,15.6
2023-12-26T01:22:01.893Z,333.4
2023-12-26T01:23:01.896Z,360
2023-12-26T01:24:02.012Z,1.7
2023-12-26T01:25:01.847Z,355.4
2023-12-26T01:26:01.943Z,15.3
2023-12-26T01:27:01.962Z,341.2
2023-12-26T01:28:01.932Z,21.5
2023-12-26T01:29:01.911Z,240.1
2023-12-26T01:30:02.059Z,255.4
2023-12-26T01:31:02.003Z,229.9
2023-12-26T01:32:01.886Z,229.9
2023-12-26T01:33:02.206Z,210.9
2023-12-26T01:34:01.990Z,217
2023-12-26T01:35:01.917Z,182.5
2023-12-26T01:36:01.920Z,218.1
2023-12-26T01:37:01.891Z,209.2
2023-12-26T01:38:01.910Z,200.3
2023-12-26T01:39:01.930Z,167.3
2023-12-26T01:40:01.925Z,175.4
2023-12-26T01:41:01.910Z,199.7
2023-12-26T01:42:02.023Z,168.1
2023-12-26T01:43:01.917Z,183.7
2023-12-26T01:44:01.914Z,177.9
2023-12-26T01:45:02.082Z,231.1
2023-12-26T01:46:01.944Z,247.4
2023-12-26T01:47:01.948Z,258.4
2023-12-26T01:48:02.104Z,282.6
2023-12-26T01:49:02.134Z,231.1
2023-12-26T01:50:01.958Z,234.6
2023-12-26T01:51:02.150Z,237.5
2023-12-26T01:52:01.974Z,228.9
2023-12-26T01:53:01.915Z,206.1
2023-12-26T01:54:01.966Z,235.2
2023-12-26T01:55:01.929Z,246.4
2023-12-26T01:56:01.952Z,210.9
2023-12-26T01:57:02.005Z,0
2023-12-26T01:58:01.931Z,305.5
2023-12-26T01:59:01.884Z,85.7
2023-12-26T02:00:01.963Z,138.9
2023-12-26T02:01:01.963Z,111.5
2023-12-26T02:02:01.924Z,343
2023-12-26T02:03:01.933Z,9.6
2023-12-26T02:04:01.945Z,38.8
2023-12-26T02:05:01.978Z,338.9
2023-12-26T02:06:01.964Z,297.4
2023-12-26T02:07:01.933Z,332.9
2023-12-26T02:08:01.946Z,353.4
2023-12-26T02:09:01.934Z,1.4
2023-12-26T02:10:01.957Z,5.4
2023-12-26T02:11:01.934Z,355.1
2023-12-26T02:12:01.935Z,326.5
2023-12-26T02:13:01.894Z,306.1
2023-12-26T02:14:01.901Z,256.7
2023-12-26T02:15:01.985Z,273.7
2023-12-26T02:16:01.914Z,217.4
2023-12-26T02:17:01.907Z,237.1
2023-12-26T02:18:02.103Z,234.2
2023-12-26T02:19:02.020Z,238.8
2023-12-26T02:20:01.940Z,259.5
2023-12-26T02:21:01.936Z,235.2
2023-12-26T02:22:01.910Z,267.1
2023-12-26T02:23:04.503Z,247.7
2023-12-26T02:24:01.978Z,262.3
2023-12-26T02:25:01.940Z,256.5
2023-12-26T02:26:01.931Z,267.7
2023-12-26T02:27:01.985Z,238.8
2023-12-26T02:28:01.902Z,254.8
2023-12-26T02:29:01.888Z,252.7
2023-12-26T02:30:01.949Z,257.5
2023-12-26T02:31:01.958Z,255.9
2023-12-26T02:32:01.956Z,257.3
2023-12-26T02:33:02.378Z,263.1
2023-12-26T02:34:02.114Z,248.1
2023-12-26T02:35:02.313Z,247.4
2023-12-26T02:36:01.995Z,274.2
2023-12-26T02:37:01.919Z,267.1
2023-12-26T02:38:01.903Z,258.1
2023-12-26T02:39:01.976Z,266.8
2023-12-26T02:40:01.922Z,265.4
2023-12-26T02:41:01.927Z,249.1
2023-12-26T02:42:01.958Z,252.7
2023-12-26T02:43:01.923Z,262.8
2023-12-26T02:44:01.902Z,264.5
2023-12-26T02:45:01.911Z,266.2
2023-12-26T02:46:01.938Z,289.7
2023-12-26T02:47:01.899Z,270
2023-12-26T02:48:02.076Z,264.8
2023-12-26T02:49:01.975Z,265.9
2023-12-26T02:50:01.898Z,263.1
2023-12-26T02:51:01.940Z,272.2
2023-12-26T02:52:01.897Z,260.9
2023-12-26T02:53:01.903Z,256.7
2023-12-26T02:54:01.922Z,264
2023-12-26T02:55:01.901Z,254.8
2023-12-26T02:56:01.926Z,250.4
2023-12-26T02:57:01.894Z,260.9
2023-12-26T02:58:01.916Z,253.8
2023-12-26T02:59:01.913Z,268.8
2023-12-26T03:00:01.965Z,265.4
2023-12-26T03:01:01.967Z,256.2
2023-12-26T03:02:01.910Z,251.9
2023-12-26T03:03:02.010Z,270.8
2023-12-26T03:04:02.058Z,269.1
2023-12-26T03:05:01.966Z,253.8
2023-12-26T03:06:02.115Z,261.1
2023-12-26T03:07:01.921Z,273.4
2023-12-26T03:08:01.900Z,253
2023-12-26T03:09:01.921Z,284.8
2023-12-26T03:10:01.906Z,259.2
2023-12-26T03:11:01.918Z,266.2
2023-12-26T03:12:01.959Z,249.9
2023-12-26T03:13:01.954Z,253.3
2023-12-26T03:14:01.907Z,264.2
2023-12-26T03:15:01.955Z,266.2
2023-12-26T03:16:01.932Z,252.7
2023-12-26T03:17:01.931Z,256.2
2023-12-26T03:18:02.093Z,257.8
2023-12-26T03:19:02.015Z,269.7
2023-12-26T03:20:01.925Z,268.8
2023-12-26T03:21:02.013Z,240.9
2023-12-26T03:22:01.921Z,274
2023-12-26T03:23:01.951Z,250.4
2023-12-26T03:24:01.958Z,256.7
2023-12-26T03:25:01.943Z,277.1
2023-12-26T03:26:01.933Z,264.8
2023-12-26T03:27:01.988Z,265.9
2023-12-26T03:28:01.944Z,265.7
2023-12-26T03:29:01.914Z,262.8
2023-12-26T03:30:01.969Z,261.1
2023-12-26T03:31:01.957Z,261.4
2023-12-26T03:32:01.905Z,261.1
2023-12-26T03:33:02.394Z,288.7
2023-12-26T03:34:02.042Z,282.4
2023-12-26T03:35:01.909Z,290.5
2023-12-26T03:36:01.944Z,290.8
2023-12-26T03:37:01.937Z,279.9
2023-12-26T03:38:01.913Z,269.1
2023-12-26T03:39:01.905Z,282.6
2023-12-26T03:40:01.965Z,237.7
2023-12-26T03:41:01.953Z,260
2023-12-26T03:42:02.009Z,289.2
2023-12-26T03:43:01.895Z,247.4
2023-12-26T03:44:01.938Z,243.4
2023-12-26T03:45:02.004Z,238.4
2023-12-26T03:46:01.925Z,266.5
2023-12-26T03:47:01.926Z,189.9
2023-12-26T03:48:02.063Z,241.1
2023-12-26T03:49:02.070Z,193.4
2023-12-26T03:50:01.973Z,219.3
2023-12-26T03:51:01.949Z,224.9
2023-12-26T03:52:01.922Z,214.4
2023-12-26T03:53:01.918Z,253.3
2023-12-26T03:54:01.981Z,225.7
2023-12-26T03:55:01.937Z,237.9
2023-12-26T03:56:01.930Z,228.1
2023-12-26T03:57:01.967Z,268.5
2023-12-26T03:58:01.976Z,267.9
2023-12-26T03:59:01.917Z,228.4
2023-12-26T04:00:01.938Z,206.5
2023-12-26T04:01:01.941Z,230.4
2023-12-26T04:02:01.926Z,187.4
2023-12-26T04:03:02.234Z,231.1
2023-12-26T04:04:02.116Z,261.7
2023-12-26T04:05:01.961Z,246
2023-12-26T04:06:01.987Z,233.6
2023-12-26T04:07:01.868Z,248.1
2023-12-26T04:08:01.943Z,214.9
2023-12-26T04:09:01.954Z,221.9
2023-12-26T04:10:01.930Z,245.7
2023-12-26T04:11:01.908Z,266.5
2023-12-26T04:12:01.912Z,220
2023-12-26T04:13:01.942Z,264.8
2023-12-26T04:14:01.936Z,227
2023-12-26T04:15:01.964Z,246.7
2023-12-26T04:16:01.926Z,237.7
2023-12-26T04:17:01.915Z,255.1
2023-12-26T04:18:01.995Z,263.1
2023-12-26T04:19:02.138Z,245.2
2023-12-26T04:20:01.931Z,226.7
2023-12-26T04:21:01.906Z,268.8
2023-12-26T04:22:01.901Z,274.5
2023-12-26T04:23:01.938Z,256.7
2023-12-26T04:24:01.944Z,168.4
2023-12-26T04:25:01.907Z,207.9
2023-12-26T04:26:01.935Z,148.4
2023-12-26T04:27:01.961Z,93.4
2023-12-26T04:28:01.934Z,121.5
2023-12-26T04:29:01.948Z,111
2023-12-26T04:30:01.939Z,100.7
2023-12-26T04:31:01.955Z,155.7
2023-12-26T04:32:01.918Z,237.5
2023-12-26T04:33:02.261Z,217.7
2023-12-26T04:34:02.091Z,229.1
2023-12-26T04:35:01.951Z,234.4
2023-12-26T04:36:01.972Z,172.3
2023-12-26T04:37:01.908Z,86.5
2023-12-26T04:38:01.923Z,27.4
2023-12-26T04:39:01.949Z,41.6
2023-12-26T04:40:01.987Z,135.4
2023-12-26T04:41:01.915Z,348.4
2023-12-26T04:42:01.960Z,90
2023-12-26T04:43:01.918Z,57.5
2023-12-26T04:44:01.940Z,33
2023-12-26T04:45:01.973Z,154.5
2023-12-26T04:46:01.927Z,144
2023-12-26T04:47:01.914Z,18
2023-12-26T04:48:02.042Z,5.7
2023-12-26T04:49:02.056Z,345.1
2023-12-26T04:50:01.904Z,11
2023-12-26T04:51:01.912Z,5.9
2023-12-26T04:52:01.905Z,22.7
2023-12-26T04:53:01.909Z,14.8
2023-12-26T04:54:01.958Z,193.7
2023-12-26T04:55:01.969Z,196.4
2023-12-26T04:56:01.897Z,196.9
2023-12-26T04:57:02.014Z,202.5
2023-12-26T04:58:01.931Z,218.4
2023-12-26T04:59:01.934Z,231.3
2023-12-26T05:00:01.931Z,234.2
2023-12-26T05:01:01.947Z,256.7
2023-12-26T05:02:01.935Z,249.9
2023-12-26T05:03:02.015Z,0
2023-12-26T05:04:01.967Z,306.8
2023-12-26T05:05:01.959Z,304.4
2023-12-26T05:06:01.998Z,313.2
2023-12-26T05:07:01.892Z,306.5
2023-12-26T05:08:01.930Z,320.3
2023-12-26T05:09:01.884Z,348.6
2023-12-26T05:10:01.937Z,3.1
2023-12-26T05:11:01.899Z,357.7
2023-12-26T05:12:01.934Z,354.8
2023-12-26T05:13:01.895Z,347.5
2023-12-26T05:14:01.939Z,334.8
2023-12-26T05:15:02.001Z,313.2
2023-12-26T05:16:01.949Z,311.6
2023-12-26T05:17:01.925Z,245.2
2023-12-26T05:18:01.984Z,243.4
2023-12-26T05:19:01.984Z,258.4
2023-12-26T05:20:10.770Z,257.3
2023-12-26T05:21:01.909Z,262.3
2023-12-26T05:22:01.943Z,257.3
2023-12-26T05:23:01.906Z,266.5
2023-12-26T05:24:01.959Z,258.9
2023-12-26T05:25:01.931Z,242.7
2023-12-26T05:26:07.991Z,182.8
2023-12-26T05:27:01.996Z,182.5
2023-12-26T05:28:01.930Z,210.9
2023-12-26T05:29:01.933Z,268.5
2023-12-26T05:30:01.944Z,300.3
2023-12-26T05:31:01.942Z,353.1
2023-12-26T05:32:01.917Z,63.8
2023-12-26T05:33:02.502Z,113.2
2023-12-26T05:34:01.990Z,136.4
2023-12-26T05:35:01.946Z,94.5
2023-12-26T05:36:01.967Z,115.6
2023-12-26T05:37:01.922Z,12.1
2023-12-26T05:38:01.953Z,22.2
2023-12-26T05:39:01.909Z,28.3
2023-12-26T05:40:01.916Z,29.2
2023-12-26T05:41:01.914Z,80.3
2023-12-26T05:42:01.933Z,128.8
2023-12-26T05:43:02.298Z,122.4
2023-12-26T05:44:01.905Z,141.3
2023-12-26T05:45:01.984Z,219.3
2023-12-26T05:46:01.907Z,264.8
2023-12-26T05:47:01.906Z,269.7
2023-12-26T05:48:02.266Z,259.2
2023-12-26T05:49:02.201Z,118.1
2023-12-26T05:50:02.363Z,121.7
2023-12-26T05:51:01.973Z,148.6
2023-12-26T05:52:01.939Z,209.6
2023-12-26T05:53:01.941Z,238.4
2023-12-26T05:54:01.965Z,255.9
2023-12-26T05:55:01.928Z,270.8
2023-12-26T05:56:01.895Z,261.1
2023-12-26T05:57:01.926Z,258.1
2023-12-26T05:58:01.953Z,259.5
2023-12-26T05:59:01.930Z,243.2
2023-12-26T06:00:01.970Z,248.4
2023-12-26T06:01:02.081Z,262.3
2023-12-26T06:02:01.907Z,277.6
2023-12-26T06:03:01.921Z,293.5
2023-12-26T06:04:01.963Z,316.3
2023-12-26T06:05:01.952Z,321.5
2023-12-26T06:06:01.960Z,319.1
2023-12-26T06:07:01.920Z,330.9
2023-12-26T06:08:01.938Z,293.7
2023-12-26T06:09:01.965Z,290.8
2023-12-26T06:10:01.924Z,257.3
2023-12-26T06:11:01.941Z,254.8
2023-12-26T06:12:01.947Z,280.7
2023-12-26T06:13:01.912Z,277.1
2023-12-26T06:14:01.930Z,285.3
2023-12-26T06:15:01.985Z,305.7
2023-12-26T06:16:01.951Z,302
2023-12-26T06:17:01.945Z,294.9
2023-12-26T06:18:02.073Z,274
2023-12-26T06:19:01.993Z,223
2023-12-26T06:20:02.043Z,235.9
2023-12-26T06:21:01.964Z,253.8
2023-12-26T06:22:01.930Z,259.7
2023-12-26T06:23:01.911Z,236.5
2023-12-26T06:24:01.973Z,259.5
2023-12-26T06:25:01.889Z,245
2023-12-26T06:26:01.931Z,240.5
2023-12-26T06:27:01.959Z,272.5
2023-12-26T06:28:01.914Z,278.8
2023-12-26T06:29:01.906Z,255.6
2023-12-26T06:30:01.946Z,239.4
2023-12-26T06:31:01.969Z,260.3
2023-12-26T06:32:01.916Z,244.5
2023-12-26T06:33:02.401Z,240.7
2023-12-26T06:34:02.143Z,258.9
2023-12-26T06:35:03.644Z,263.7
2023-12-26T06:36:01.967Z,261.4
2023-12-26T06:37:01.997Z,289.5
2023-12-26T06:38:01.947Z,289
2023-12-26T06:39:02.024Z,255.4
2023-12-26T06:40:01.930Z,256.2
2023-12-26T06:41:01.918Z,261.4
2023-12-26T06:42:01.961Z,256.5
2023-12-26T06:43:01.908Z,273.1
2023-12-26T06:44:01.894Z,265.7
2023-12-26T06:45:02.023Z,249.6
2023-12-26T06:46:01.913Z,239.8
2023-12-26T06:47:01.931Z,282.6
2023-12-26T06:48:02.023Z,298.5
2023-12-26T06:49:01.989Z,297.6
2023-12-26T06:50:01.949Z,307.4
2023-12-26T06:51:01.948Z,303
2023-12-26T06:52:01.936Z,302.8
2023-12-26T06:53:01.927Z,303.8
2023-12-26T06:54:01.971Z,298.8
2023-12-26T06:55:01.927Z,286.1
2023-12-26T06:56:01.938Z,295.1
2023-12-26T06:57:01.961Z,300.9
2023-12-26T06:58:01.913Z,305.9
2023-12-26T06:59:01.929Z,293.5
2023-12-26T07:00:02.290Z,254.6
2023-12-26T07:01:02.008Z,251.9
2023-12-26T07:02:01.942Z,278.8
2023-12-26T07:03:02.603Z,271.4
2023-12-26T07:04:02.148Z,295.4
2023-12-26T07:05:02.034Z,284
2023-12-26T07:06:01.921Z,275.7
2023-12-26T07:07:01.928Z,251.2
2023-12-26T07:08:01.905Z,216.1
2023-12-26T07:09:01.962Z,210.1
2023-12-26T07:10:01.904Z,206.1
2023-12-26T07:11:01.913Z,234.8
2023-12-26T07:12:01.946Z,268.2
2023-12-26T07:13:01.879Z,242.3
2023-12-26T07:14:01.946Z,247.2
2023-12-26T07:15:01.938Z,228.4
2023-12-26T07:16:01.947Z,216.8
2023-12-26T07:17:01.920Z,228.8
2023-12-26T07:18:02.040Z,233.4
2023-12-26T07:19:02.094Z,230.9
2023-12-26T07:20:01.952Z,238.8
2023-12-26T07:21:01.936Z,213.4
2023-12-26T07:22:01.921Z,210.5
2023-12-26T07:23:01.904Z,214.6
2023-12-26T07:24:01.969Z,206.5
2023-12-26T07:25:01.928Z,187.1
2023-12-26T07:26:01.954Z,175.9
2023-12-26T07:27:01.917Z,189.3
2023-12-26T07:28:01.949Z,218.1
2023-12-26T07:29:01.920Z,228
2023-12-26T07:30:01.950Z,211.1
2023-12-26T07:31:01.932Z,225.7
2023-12-26T07:32:01.930Z,244.3
2023-12-26T07:33:02.504Z,240.5
2023-12-26T07:34:02.055Z,227.3
2023-12-26T07:35:01.910Z,206.5
2023-12-26T07:36:01.958Z,217.9
2023-12-26T07:37:01.912Z,230.3
2023-12-26T07:38:01.915Z,241.6
2023-12-26T07:39:01.911Z,247.2
2023-12-26T07:40:01.913Z,213.6
2023-12-26T07:41:01.897Z,202
2023-12-26T07:42:02.093Z,208.5
2023-12-26T07:43:01.922Z,216.1
2023-12-26T07:44:01.896Z,240.5
2023-12-26T07:45:01.956Z,264.8
2023-12-26T07:46:01.926Z,248.1
2023-12-26T07:47:01.934Z,249.4
2023-12-26T07:48:02.037Z,204.9
2023-12-26T07:49:02.175Z,206.7
2023-12-26T07:50:04.187Z,220.6
2023-12-26T07:51:01.993Z,226.9
2023-12-26T07:52:01.930Z,241.8
2023-12-26T07:53:01.932Z,246.4
2023-12-26T07:54:01.933Z,258.4
2023-12-26T07:55:01.934Z,250.7
2023-12-26T07:56:01.905Z,215.9
2023-12-26T07:57:01.962Z,209.6
2023-12-26T07:58:01.923Z,226.7
2023-12-26T07:59:01.951Z,263.7
2023-12-26T08:00:01.999Z,255.1
2023-12-26T08:01:01.953Z,274.8
2023-12-26T08:02:01.924Z,253.5
2023-12-26T08:03:02.416Z,266.8
2023-12-26T08:04:02.021Z,280.4
2023-12-26T08:05:02.059Z,251.2
2023-12-26T08:06:02.004Z,287.7
2023-12-26T08:07:01.922Z,302
2023-12-26T08:08:01.911Z,293.2
2023-12-26T08:09:01.909Z,38.4
2023-12-26T08:10:01.911Z,59.2
2023-12-26T08:11:01.940Z,332
2023-12-26T08:12:01.975Z,326.9
2023-12-26T08:13:01.915Z,285.9
2023-12-26T08:14:01.940Z,300.7
2023-12-26T08:15:02.056Z,294.9
2023-12-26T08:16:01.918Z,309.8
2023-12-26T08:17:01.937Z,330.7
2023-12-26T08:18:02.067Z,275.1
2023-12-26T08:19:02.155Z,271.1
2023-12-26T08:20:01.909Z,285.6
2023-12-26T08:21:01.940Z,245.7
2023-12-26T08:22:01.933Z,254.8
2023-12-26T08:23:01.936Z,264.5
2023-12-26T08:24:01.951Z,286.1
2023-12-26T08:25:01.921Z,308.6
2023-12-26T08:26:01.891Z,313.8
2023-12-26T08:27:01.955Z,324.6
2023-12-26T08:28:01.892Z,306.3
2023-12-26T08:29:01.912Z,310
2023-12-26T08:30:01.999Z,302.6
2023-12-26T08:31:01.964Z,301.5
2023-12-26T08:32:01.876Z,291.8
2023-12-26T08:33:02.404Z,291.3
2023-12-26T08:34:02.024Z,282.6
2023-12-26T08:35:01.889Z,265.7
2023-12-26T08:36:01.916Z,276.5
2023-12-26T08:37:01.936Z,293.2
2023-12-26T08:38:01.912Z,284.3
2023-12-26T08:39:01.945Z,290.3
2023-12-26T08:40:01.900Z,252.5
2023-12-26T08:41:01.953Z,284.8
2023-12-26T08:42:01.939Z,289.5
2023-12-26T08:43:01.988Z,274.5
2023-12-26T08:44:01.936Z,287.7
2023-12-26T08:45:02.062Z,266.5
2023-12-26T08:46:01.918Z,272.8
2023-12-26T08:47:01.905Z,186.8
2023-12-26T08:48:02.218Z,238.6
2023-12-26T08:49:02.133Z,227.3
2023-12-26T08:50:01.936Z,252.7
2023-12-26T08:51:01.941Z,252.5
2023-12-26T08:52:01.935Z,211.7
2023-12-26T08:53:01.900Z,211.1
2023-12-26T08:54:01.933Z,206.3
2023-12-26T08:55:01.932Z,212.6
2023-12-26T08:56:01.930Z,200.8
2023-12-26T08:57:01.986Z,194.3
2023-12-26T08:58:01.911Z,212.4
2023-12-26T08:59:01.934Z,217.5
2023-12-26T09:00:02.108Z,209.4
2023-12-26T09:01:02.147Z,212.2
2023-12-26T09:02:01.924Z,248.4
2023-12-26T09:04:02.066Z,226.3
2023-12-26T09:05:01.928Z,229.3
2023-12-26T09:06:02.020Z,232.5
2023-12-26T09:07:02.089Z,234.8
2023-12-26T09:08:01.924Z,227
2023-12-26T09:09:01.961Z,215.1
2023-12-26T09:10:01.903Z,215.1
2023-12-26T09:11:04.072Z,216.6
2023-12-26T09:12:01.961Z,237.5
2023-12-26T09:13:01.893Z,250.2
2023-12-26T09:14:01.923Z,261.1
2023-12-26T09:15:01.921Z,244.3
2023-12-26T09:16:01.913Z,228.6
2023-12-26T09:17:01.941Z,205.4
2023-12-26T09:18:02.090Z,202
2023-12-26T09:19:02.170Z,196.9
2023-12-26T09:20:01.922Z,213.4
2023-12-26T09:21:01.946Z,235
2023-12-26T09:22:01.931Z,234
2023-12-26T09:23:01.893Z,231.5
2023-12-26T09:24:01.959Z,236.3
2023-12-26T09:25:01.944Z,226.1
2023-12-26T09:26:01.924Z,233.1
2023-12-26T09:27:01.909Z,235.5
2023-12-26T09:28:01.904Z,256.7
2023-12-26T09:29:01.900Z,226.6
2023-12-26T09:30:01.979Z,239.4
2023-12-26T09:31:01.996Z,223.8
2023-12-26T09:32:01.912Z,214.2
2023-12-26T09:33:02.293Z,226.1
2023-12-26T09:34:01.985Z,238.6
2023-12-26T09:35:01.933Z,246.4
2023-12-26T09:36:01.936Z,249.6
2023-12-26T09:37:01.932Z,267.4
2023-12-26T09:38:01.936Z,252.7
2023-12-26T09:39:02.010Z,208.8
2023-12-26T09:40:01.919Z,267.9
2023-12-26T09:41:01.924Z,298.3
2023-12-26T09:42:03.330Z,258.1
2023-12-26T09:43:01.938Z,291.8
2023-12-26T09:44:01.876Z,307.2
2023-12-26T09:45:02.005Z,294.7
2023-12-26T09:46:01.904Z,296.7
2023-12-26T09:47:01.881Z,274.8
2023-12-26T09:48:02.014Z,184.8
2023-12-26T09:49:15.097Z,246
2023-12-26T09:50:02.184Z,334.3
2023-12-26T09:51:02.018Z,245.7
2023-12-26T09:52:01.973Z,202.2
2023-12-26T09:53:01.908Z,228
2023-12-26T09:54:01.967Z,240.3
2023-12-26T09:55:01.903Z,247.7
2023-12-26T09:56:01.920Z,241.6
2023-12-26T09:57:01.939Z,327.3
2023-12-26T09:58:01.914Z,296.1
2023-12-26T09:59:01.904Z,293.2
2023-12-26T10:00:01.923Z,298.3
2023-12-26T10:01:01.939Z,302
2023-12-26T10:02:01.910Z,299.6
2023-12-26T10:03:02.328Z,312.9
2023-12-26T10:04:01.915Z,306.1
2023-12-26T10:05:01.972Z,306.1
2023-12-26T10:06:01.931Z,304.7
2023-12-26T10:07:01.905Z,270
2023-12-26T10:08:01.913Z,255.9
2023-12-26T10:09:02.125Z,227.6
2023-12-26T10:10:01.993Z,356.8
2023-12-26T10:11:01.922Z,336.7
2023-12-26T10:12:02.006Z,253.5
2023-12-26T10:13:01.932Z,252.2
2023-12-26T10:14:01.935Z,264
2023-12-26T10:15:02.088Z,223.6
2023-12-26T10:16:01.920Z,191.8
2023-12-26T10:17:01.925Z,76.5
2023-12-26T10:18:01.993Z,125.7
2023-12-26T10:19:02.158Z,97.4
2023-12-26T10:20:02.004Z,112.2
2023-12-26T10:21:01.898Z,358.2
2023-12-26T10:22:01.890Z,17.7
2023-12-26T10:23:01.901Z,0.5
2023-12-26T10:24:01.930Z,0.5
2023-12-26T10:25:01.963Z,6.8
2023-12-26T10:26:01.924Z,31.3
2023-12-26T10:27:01.984Z,138.9
2023-12-26T10:28:01.922Z,78.9
2023-12-26T10:29:01.901Z,357.4
2023-12-26T10:30:01.947Z,6.5
2023-12-26T10:31:02.004Z,350.3
2023-12-26T10:32:01.911Z,144.8
2023-12-26T10:33:02.633Z,149.4
2023-12-26T10:34:01.994Z,13.7
2023-12-26T10:35:01.918Z,14.8
2023-12-26T10:36:01.982Z,55.3
2023-12-26T10:37:01.940Z,62.7
2023-12-26T10:38:01.905Z,22.5
2023-12-26T10:39:01.956Z,30.5
2023-12-26T10:40:01.914Z,44.2
2023-12-26T10:41:01.901Z,26.7
2023-12-26T10:42:01.924Z,26.5
2023-12-26T10:43:02.383Z,43.8
2023-12-26T10:44:01.877Z,62
2023-12-26T10:45:01.946Z,6.5
2023-12-26T10:46:01.913Z,12.4
2023-12-26T10:47:01.942Z,10.2
2023-12-26T10:48:02.073Z,10.7
2023-12-26T10:49:02.045Z,352.5
2023-12-26T10:50:02.021Z,4.2
2023-12-26T10:51:02.005Z,35.1
2023-12-26T10:52:01.958Z,78.1
2023-12-26T10:53:01.917Z,47.5
2023-12-26T10:54:01.945Z,57.1
2023-12-26T10:55:06.109Z,22.2
2023-12-26T10:56:01.835Z,18
2023-12-26T10:57:01.920Z,19.2
2023-12-26T10:58:01.928Z,82.3
2023-12-26T10:59:01.888Z,90.8
2023-12-26T11:00:01.984Z,83.7
2023-12-26T11:01:01.994Z,86.2
2023-12-26T11:02:10.563Z,95.9
2023-12-26T11:03:02.011Z,124.6
2023-12-26T11:04:01.980Z,90.8
2023-12-26T11:05:01.957Z,98.8
2023-12-26T11:06:01.942Z,96.5
2023-12-26T11:07:01.917Z,102.4
2023-12-26T11:08:01.928Z,87.9
2023-12-26T11:09:01.938Z,97.6
2023-12-26T11:10:01.925Z,104.5
2023-12-26T11:11:01.876Z,112
2023-12-26T11:12:02.516Z,68.1
2023-12-26T11:13:01.914Z,119.4
2023-12-26T11:14:01.923Z,84.2
2023-12-26T11:15:01.961Z,123.6
2023-12-26T11:16:01.905Z,74.3
2023-12-26T11:17:01.923Z,100.7
2023-12-26T11:18:02.073Z,98.2
2023-12-26T11:19:02.227Z,85.9
2023-12-26T11:20:01.963Z,77.5
2023-12-26T11:21:01.936Z,90
2023-12-26T11:22:01.914Z,77.3
2023-12-26T11:23:01.952Z,111.3
2023-12-26T11:24:01.973Z,113.7
2023-12-26T11:25:01.928Z,149.6
2023-12-26T11:26:01.915Z,132.4
2023-12-26T11:27:01.966Z,127.4
2023-12-26T11:28:01.927Z,117.4
2023-12-26T11:29:01.926Z,124.7
2023-12-26T11:30:01.998Z,121.7
2023-12-26T11:31:01.943Z,72.2
2023-12-26T11:32:01.897Z,50.1
2023-12-26T11:33:02.029Z,63.6
2023-12-26T11:34:02.006Z,40
2023-12-26T11:35:01.950Z,13.4
2023-12-26T11:36:01.960Z,64.8
2023-12-26T11:37:01.904Z,85.1
2023-12-26T11:38:01.929Z,65.7
2023-12-26T11:39:01.934Z,90.8
2023-12-26T11:40:01.914Z,109.2
2023-12-26T11:41:01.915Z,47.6
2023-12-26T11:42:01.957Z,34.4
2023-12-26T11:43:01.925Z,67.7
2023-12-26T11:44:01.907Z,17.4
2023-12-26T11:45:02.056Z,97.6
2023-12-26T11:46:01.904Z,102.6
2023-12-26T11:47:01.930Z,39.8
2023-12-26T11:48:02.058Z,34.6
2023-12-26T11:49:02.084Z,90
2023-12-26T11:50:02.093Z,100.2
2023-12-26T11:51:01.953Z,209.8
2023-12-26T11:52:01.970Z,117.6
2023-12-26T11:53:01.935Z,357.7
2023-12-26T11:54:01.905Z,7.4
2023-12-26T11:55:01.941Z,41.9
2023-12-26T11:56:01.953Z,107.4
2023-12-26T11:57:01.935Z,136.4
2023-12-26T11:58:01.987Z,127.2
2023-12-26T11:59:01.924Z,108
2023-12-26T12:00:02.024Z,126.3
2023-12-26T12:01:01.949Z,82.5
2023-12-26T12:02:01.982Z,98.8
2023-12-26T12:03:02.127Z,121.5
2023-12-26T12:04:01.989Z,126.3
2023-12-26T12:05:02.041Z,114.9
2023-12-26T12:06:02.154Z,96.2
2023-12-26T12:07:02.111Z,119
2023-12-26T12:08:02.065Z,150.1
2023-12-26T12:09:01.931Z,199.7
2023-12-26T12:10:01.955Z,192.9
2023-12-26T12:11:02.076Z,157.9
2023-12-26T12:12:01.939Z,80
2023-12-26T12:13:02.022Z,156
2023-12-26T12:14:01.903Z,149.4
2023-12-26T12:15:02.003Z,133.6
2023-12-26T12:16:02.146Z,164.6
2023-12-26T12:17:01.895Z,178.5
2023-12-26T12:18:02.106Z,183.1
2023-12-26T12:19:02.498Z,181.1
2023-12-26T12:20:01.940Z,127.4
2023-12-26T12:21:01.934Z,87.4
2023-12-26T12:22:01.926Z,84.5
2023-12-26T12:23:01.930Z,90.5
2023-12-26T12:24:01.952Z,89.1
2023-12-26T12:25:01.941Z,17.2
2023-12-26T12:26:01.949Z,48.3
2023-12-26T12:27:02.029Z,70.9
2023-12-26T12:28:01.947Z,38.8
2023-12-26T12:29:01.921Z,19.2
2023-12-26T12:30:02.520Z,37
2023-12-26T12:31:01.942Z,70.9
2023-12-26T12:32:01.910Z,24.9
2023-12-26T12:33:02.045Z,27
2023-12-26T12:34:02.414Z,56.9
2023-12-26T12:35:01.925Z,68.6
2023-12-26T12:36:02.021Z,101.3
2023-12-26T12:37:01.890Z,139.6
2023-12-26T12:38:01.910Z,160.4
2023-12-26T12:39:01.930Z,190.2
2023-12-26T12:40:01.891Z,208.3
2023-12-26T12:41:01.911Z,164.6
2023-12-26T12:42:01.961Z,149.4
2023-12-26T12:43:01.925Z,126.5
2023-12-26T12:44:08.713Z,85.1
2023-12-26T12:45:01.985Z,94
2023-12-26T12:46:01.922Z,28.8
2023-12-26T12:47:01.896Z,62.5
2023-12-26T12:48:02.000Z,137.3
2023-12-26T12:49:02.180Z,169.2
2023-12-26T12:50:02.080Z,334.1
2023-12-26T12:51:01.948Z,196.1
2023-12-26T12:52:01.935Z,194.5
2023-12-26T12:53:01.932Z,206.7
2023-12-26T12:54:01.964Z,215.9
2023-12-26T12:55:01.930Z,187.1
2023-12-26T12:56:01.934Z,160.7
2023-12-26T12:57:01.970Z,124.9
2023-12-26T12:58:01.901Z,79.2
2023-12-26T12:59:01.901Z,80
2023-12-26T13:00:01.996Z,90.2
2023-12-26T13:01:03.581Z,143.3
2023-12-26T13:02:01.916Z,151.4